sensor_id;sensor_type;location;lat;lon;timestamp;P1;durP1;ratioP1;P2;durP2;ratioP2
79460;SDS011;68929;42.666;23.324;2023-09-08T00:02:07;13.25;;;11.90;;
79460;SDS011;68929;42.666;23.324;2023-09-08T00:04:34;14.73;;;11.63;;
79460;SDS011;68929;42.666;23.324;2023-09-08T00:06:59;16.88;;;12.50;;
79460;SDS011;68929;42.666;23.324;2023-09-08T00:09:25;14.68;;;13.20;;
79460;SDS011;68929;42.666;23.324;2023-09-08T00:11:51;14.95;;;11.98;;
79460;SDS011;68929;42.666;23.324;2023-09-08T00:14:17;15.25;;;11.98;;
79460;SDS011;68929;42.666;23.324;2023-09-08T00:16:42;12.10;;;10.80;;
79460;SDS011;68929;42.666;23.324;2023-09-08T00:19:08;12.63;;;11.35;;
79460;SDS011;68929;42.666;23.324;2023-09-08T00:21:35;11.23;;;10.13;;
79460;SDS011;68929;42.666;23.324;2023-09-08T00:24:01;11.40;;;10.30;;
79460;SDS011;68929;42.666;23.324;2023-09-08T00:26:27;11.07;;;9.98;;
79460;SDS011;68929;42.666;23.324;2023-09-08T00:28:52;11.93;;;10.00;;
79460;SDS011;68929;42.666;23.324;2023-09-08T00:31:17;8.00;;;7.25;;
79460;SDS011;68929;42.666;23.324;2023-09-08T00:33:43;11.55;;;8.55;;
79460;SDS011;68929;42.666;23.324;2023-09-08T00:36:09;9.50;;;8.55;;
79460;SDS011;68929;42.666;23.324;2023-09-08T00:38:34;11.35;;;8.30;;
79460;SDS011;68929;42.666;23.324;2023-09-08T00:41:00;8.85;;;7.95;;
79460;SDS011;68929;42.666;23.324;2023-09-08T00:43:26;9.20;;;8.30;;
79460;SDS011;68929;42.666;23.324;2023-09-08T00:45:51;9.32;;;7.53;;
79460;SDS011;68929;42.666;23.324;2023-09-08T00:48:18;10.77;;;7.80;;
79460;SDS011;68929;42.666;23.324;2023-09-08T00:50:44;8.02;;;7.22;;
79460;SDS011;68929;42.666;23.324;2023-09-08T00:53:10;8.77;;;7.60;;
79460;SDS011;68929;42.666;23.324;2023-09-08T00:55:35;8.57;;;6.97;;
79460;SDS011;68929;42.666;23.324;2023-09-08T00:58:01;8.65;;;6.93;;
79460;SDS011;68929;42.666;23.324;2023-09-08T01:00:27;9.30;;;7.10;;
79460;SDS011;68929;42.666;23.324;2023-09-08T01:02:53;8.38;;;7.20;;
79460;SDS011;68929;42.666;23.324;2023-09-08T01:05:19;9.70;;;7.18;;
79460;SDS011;68929;42.666;23.324;2023-09-08T01:07:45;9.57;;;6.78;;
79460;SDS011;68929;42.666;23.324;2023-09-08T01:10:12;10.05;;;6.70;;
79460;SDS011;68929;42.666;23.324;2023-09-08T01:12:38;7.57;;;6.78;;
79460;SDS011;68929;42.666;23.324;2023-09-08T01:15:04;11.57;;;6.97;;
79460;SDS011;68929;42.666;23.324;2023-09-08T01:17:30;7.75;;;6.43;;
79460;SDS011;68929;42.666;23.324;2023-09-08T01:19:56;9.10;;;6.55;;
79460;SDS011;68929;42.666;23.324;2023-09-08T01:25:24;8.43;;;6.40;;
79460;SDS011;68929;42.666;23.324;2023-09-08T01:27:52;6.82;;;6.22;;
79460;SDS011;68929;42.666;23.324;2023-09-08T01:30:19;9.48;;;6.57;;
79460;SDS011;68929;42.666;23.324;2023-09-08T01:32:46;8.63;;;7.35;;
79460;SDS011;68929;42.666;23.324;2023-09-08T01:35:12;10.60;;;7.07;;
79460;SDS011;68929;42.666;23.324;2023-09-08T01:37:41;8.02;;;6.50;;
79460;SDS011;68929;42.666;23.324;2023-09-08T01:40:10;8.90;;;5.95;;
79460;SDS011;68929;42.666;23.324;2023-09-08T01:42:36;10.00;;;6.50;;
79460;SDS011;68929;42.666;23.324;2023-09-08T01:45:03;7.00;;;6.22;;
79460;SDS011;68929;42.666;23.324;2023-09-08T01:47:29;9.27;;;6.95;;
79460;SDS011;68929;42.666;23.324;2023-09-08T01:49:55;10.02;;;6.25;;
79460;SDS011;68929;42.666;23.324;2023-09-08T01:52:20;9.05;;;6.65;;
79460;SDS011;68929;42.666;23.324;2023-09-08T01:54:45;10.50;;;6.75;;
79460;SDS011;68929;42.666;23.324;2023-09-08T01:57:11;8.00;;;6.60;;
79460;SDS011;68929;42.666;23.324;2023-09-08T01:59:36;7.30;;;6.60;;
79460;SDS011;68929;42.666;23.324;2023-09-08T02:02:05;11.77;;;6.75;;
79460;SDS011;68929;42.666;23.324;2023-09-08T02:04:30;11.45;;;6.65;;
79460;SDS011;68929;42.666;23.324;2023-09-08T02:06:55;14.48;;;7.30;;
79460;SDS011;68929;42.666;23.324;2023-09-08T02:09:21;7.93;;;6.75;;
79460;SDS011;68929;42.666;23.324;2023-09-08T02:11:47;10.48;;;7.38;;
79460;SDS011;68929;42.666;23.324;2023-09-08T02:14:12;9.75;;;7.35;;
79460;SDS011;68929;42.666;23.324;2023-09-08T02:16:38;10.25;;;7.72;;
79460;SDS011;68929;42.666;23.324;2023-09-08T02:19:04;8.13;;;7.15;;
79460;SDS011;68929;42.666;23.324;2023-09-08T02:21:30;9.80;;;6.88;;
79460;SDS011;68929;42.666;23.324;2023-09-08T02:23:55;9.75;;;7.38;;
79460;SDS011;68929;42.666;23.324;2023-09-08T02:26:20;7.35;;;6.65;;
79460;SDS011;68929;42.666;23.324;2023-09-08T02:28:46;8.98;;;7.40;;
79460;SDS011;68929;42.666;23.324;2023-09-08T02:31:11;11.13;;;7.40;;
79460;SDS011;68929;42.666;23.324;2023-09-08T02:33:37;9.57;;;8.20;;
79460;SDS011;68929;42.666;23.324;2023-09-08T02:36:03;8.70;;;6.90;;
79460;SDS011;68929;42.666;23.324;2023-09-08T02:38:30;8.73;;;7.25;;
79460;SDS011;68929;42.666;23.324;2023-09-08T02:40:56;8.07;;;7.05;;
79460;SDS011;68929;42.666;23.324;2023-09-08T02:43:22;10.57;;;7.60;;
79460;SDS011;68929;42.666;23.324;2023-09-08T02:45:47;11.52;;;8.45;;
79460;SDS011;68929;42.666;23.324;2023-09-08T02:48:13;12.35;;;7.30;;
79460;SDS011;68929;42.666;23.324;2023-09-08T02:50:38;11.60;;;8.80;;
79460;SDS011;68929;42.666;23.324;2023-09-08T02:53:03;9.85;;;7.97;;
79460;SDS011;68929;42.666;23.324;2023-09-08T02:55:30;15.68;;;8.50;;
79460;SDS011;68929;42.666;23.324;2023-09-08T02:57:55;11.85;;;8.98;;
79460;SDS011;68929;42.666;23.324;2023-09-08T03:00:21;14.10;;;8.43;;
79460;SDS011;68929;42.666;23.324;2023-09-08T03:02:47;11.77;;;9.00;;
79460;SDS011;68929;42.666;23.324;2023-09-08T03:05:12;13.60;;;9.40;;
79460;SDS011;68929;42.666;23.324;2023-09-08T03:07:38;11.43;;;9.55;;
79460;SDS011;68929;42.666;23.324;2023-09-08T03:10:04;11.63;;;9.70;;
79460;SDS011;68929;42.666;23.324;2023-09-08T03:12:30;10.95;;;9.27;;
79460;SDS011;68929;42.666;23.324;2023-09-08T03:14:56;11.43;;;8.70;;
79460;SDS011;68929;42.666;23.324;2023-09-08T03:17:21;10.40;;;9.05;;
79460;SDS011;68929;42.666;23.324;2023-09-08T03:19:47;9.68;;;8.70;;
79460;SDS011;68929;42.666;23.324;2023-09-08T03:22:12;12.75;;;9.02;;
79460;SDS011;68929;42.666;23.324;2023-09-08T03:24:38;11.77;;;8.10;;
79460;SDS011;68929;42.666;23.324;2023-09-08T03:27:03;11.23;;;9.20;;
79460;SDS011;68929;42.666;23.324;2023-09-08T03:29:28;8.95;;;8.15;;
79460;SDS011;68929;42.666;23.324;2023-09-08T03:31:54;12.45;;;9.73;;
79460;SDS011;68929;42.666;23.324;2023-09-08T03:34:19;12.38;;;10.70;;
79460;SDS011;68929;42.666;23.324;2023-09-08T03:36:46;15.23;;;11.80;;
79460;SDS011;68929;42.666;23.324;2023-09-08T03:39:13;12.65;;;10.77;;
79460;SDS011;68929;42.666;23.324;2023-09-08T03:41:38;19.27;;;11.35;;
79460;SDS011;68929;42.666;23.324;2023-09-08T03:44:04;14.80;;;11.15;;
79460;SDS011;68929;42.666;23.324;2023-09-08T03:46:29;13.73;;;10.43;;
79460;SDS011;68929;42.666;23.324;2023-09-08T03:48:55;11.95;;;10.52;;
79460;SDS011;68929;42.666;23.324;2023-09-08T03:51:25;12.40;;;10.18;;
79460;SDS011;68929;42.666;23.324;2023-09-08T03:53:51;10.93;;;9.93;;
79460;SDS011;68929;42.666;23.324;2023-09-08T03:56:16;11.02;;;9.93;;
79460;SDS011;68929;42.666;23.324;2023-09-08T03:58:42;17.48;;;10.52;;
79460;SDS011;68929;42.666;23.324;2023-09-08T04:01:07;11.18;;;10.07;;
79460;SDS011;68929;42.666;23.324;2023-09-08T04:03:32;12.65;;;9.95;;
79460;SDS011;68929;42.666;23.324;2023-09-08T04:05:58;9.45;;;8.57;;
79460;SDS011;68929;42.666;23.324;2023-09-08T04:08:23;8.55;;;7.75;;
79460;SDS011;68929;42.666;23.324;2023-09-08T04:10:49;11.98;;;9.73;;
79460;SDS011;68929;42.666;23.324;2023-09-08T04:13:14;10.55;;;9.38;;
79460;SDS011;68929;42.666;23.324;2023-09-08T04:15:40;12.30;;;8.90;;
79460;SDS011;68929;42.666;23.324;2023-09-08T04:18:05;11.05;;;9.43;;
79460;SDS011;68929;42.666;23.324;2023-09-08T04:20:31;12.35;;;8.40;;
79460;SDS011;68929;42.666;23.324;2023-09-08T04:22:56;15.68;;;10.80;;
79460;SDS011;68929;42.666;23.324;2023-09-08T04:25:21;12.00;;;8.63;;
79460;SDS011;68929;42.666;23.324;2023-09-08T04:27:47;9.25;;;8.27;;
79460;SDS011;68929;42.666;23.324;2023-09-08T04:30:12;16.65;;;10.43;;
79460;SDS011;68929;42.666;23.324;2023-09-08T04:32:38;12.65;;;11.38;;
79460;SDS011;68929;42.666;23.324;2023-09-08T04:35:04;11.30;;;10.15;;
79460;SDS011;68929;42.666;23.324;2023-09-08T04:37:30;11.38;;;9.02;;
79460;SDS011;68929;42.666;23.324;2023-09-08T04:39:56;16.00;;;10.65;;
79460;SDS011;68929;42.666;23.324;2023-09-08T04:42:21;12.27;;;8.18;;
79460;SDS011;68929;42.666;23.324;2023-09-08T04:44:48;10.05;;;9.10;;
79460;SDS011;68929;42.666;23.324;2023-09-08T04:47:13;12.15;;;8.43;;
79460;SDS011;68929;42.666;23.324;2023-09-08T04:49:39;11.85;;;9.18;;
79460;SDS011;68929;42.666;23.324;2023-09-08T04:52:04;20.80;;;11.93;;
79460;SDS011;68929;42.666;23.324;2023-09-08T04:54:30;11.77;;;10.10;;
79460;SDS011;68929;42.666;23.324;2023-09-08T04:56:56;12.27;;;10.70;;
79460;SDS011;68929;42.666;23.324;2023-09-08T04:59:22;8.93;;;7.78;;
79460;SDS011;68929;42.666;23.324;2023-09-08T05:01:48;18.35;;;10.07;;
79460;SDS011;68929;42.666;23.324;2023-09-08T05:04:16;16.75;;;10.32;;
79460;SDS011;68929;42.666;23.324;2023-09-08T05:06:42;12.27;;;8.63;;
79460;SDS011;68929;42.666;23.324;2023-09-08T05:09:08;8.55;;;7.78;;
79460;SDS011;68929;42.666;23.324;2023-09-08T05:11:33;10.85;;;8.20;;
79460;SDS011;68929;42.666;23.324;2023-09-08T05:14:01;13.07;;;9.45;;
79460;SDS011;68929;42.666;23.324;2023-09-08T05:16:27;12.38;;;9.60;;
79460;SDS011;68929;42.666;23.324;2023-09-08T05:19:04;13.50;;;9.23;;
79460;SDS011;68929;42.666;23.324;2023-09-08T05:21:31;13.93;;;8.80;;
79460;SDS011;68929;42.666;23.324;2023-09-08T05:23:57;10.75;;;9.07;;
79460;SDS011;68929;42.666;23.324;2023-09-08T05:26:22;10.25;;;8.30;;
79460;SDS011;68929;42.666;23.324;2023-09-08T05:28:48;11.65;;;7.90;;
79460;SDS011;68929;42.666;23.324;2023-09-08T05:31:13;11.60;;;7.70;;
79460;SDS011;68929;42.666;23.324;2023-09-08T05:33:38;12.93;;;8.95;;
79460;SDS011;68929;42.666;23.324;2023-09-08T05:36:04;10.35;;;7.22;;
79460;SDS011;68929;42.666;23.324;2023-09-08T05:38:29;10.95;;;7.43;;
79460;SDS011;68929;42.666;23.324;2023-09-08T05:40:55;11.10;;;8.25;;
79460;SDS011;68929;42.666;23.324;2023-09-08T05:43:21;15.50;;;8.32;;
79460;SDS011;68929;42.666;23.324;2023-09-08T05:45:46;9.77;;;7.80;;
79460;SDS011;68929;42.666;23.324;2023-09-08T05:48:11;14.65;;;8.60;;
79460;SDS011;68929;42.666;23.324;2023-09-08T05:50:38;7.13;;;6.13;;
79460;SDS011;68929;42.666;23.324;2023-09-08T05:53:03;11.27;;;7.80;;
79460;SDS011;68929;42.666;23.324;2023-09-08T05:55:29;9.45;;;7.63;;
79460;SDS011;68929;42.666;23.324;2023-09-08T05:57:55;8.07;;;6.93;;
79460;SDS011;68929;42.666;23.324;2023-09-08T06:00:20;8.93;;;6.50;;
79460;SDS011;68929;42.666;23.324;2023-09-08T06:02:46;11.13;;;6.90;;
79460;SDS011;68929;42.666;23.324;2023-09-08T06:05:11;9.85;;;6.78;;
79460;SDS011;68929;42.666;23.324;2023-09-08T06:07:36;10.13;;;6.03;;
79460;SDS011;68929;42.666;23.324;2023-09-08T06:10:03;12.95;;;7.22;;
79460;SDS011;68929;42.666;23.324;2023-09-08T06:12:29;9.52;;;6.60;;
79460;SDS011;68929;42.666;23.324;2023-09-08T06:14:58;13.18;;;6.82;;
79460;SDS011;68929;42.666;23.324;2023-09-08T06:17:24;11.32;;;6.93;;
79460;SDS011;68929;42.666;23.324;2023-09-08T06:19:49;7.03;;;6.20;;
79460;SDS011;68929;42.666;23.324;2023-09-08T06:22:15;8.90;;;6.03;;
79460;SDS011;68929;42.666;23.324;2023-09-08T06:24:40;7.93;;;5.68;;
79460;SDS011;68929;42.666;23.324;2023-09-08T06:27:05;12.02;;;5.72;;
79460;SDS011;68929;42.666;23.324;2023-09-08T06:29:32;7.82;;;5.78;;
79460;SDS011;68929;42.666;23.324;2023-09-08T06:31:57;8.75;;;5.63;;
79460;SDS011;68929;42.666;23.324;2023-09-08T06:34:22;8.23;;;5.10;;
79460;SDS011;68929;42.666;23.324;2023-09-08T06:36:48;7.47;;;4.90;;
79460;SDS011;68929;42.666;23.324;2023-09-08T06:39:14;11.65;;;5.60;;
79460;SDS011;68929;42.666;23.324;2023-09-08T06:41:40;10.38;;;5.50;;
79460;SDS011;68929;42.666;23.324;2023-09-08T06:44:05;6.63;;;5.28;;
79460;SDS011;68929;42.666;23.324;2023-09-08T06:46:31;8.02;;;5.32;;
79460;SDS011;68929;42.666;23.324;2023-09-08T06:48:56;6.88;;;4.70;;
79460;SDS011;68929;42.666;23.324;2023-09-08T06:51:24;5.45;;;4.95;;
79460;SDS011;68929;42.666;23.324;2023-09-08T06:53:56;7.63;;;4.93;;
79460;SDS011;68929;42.666;23.324;2023-09-08T06:56:22;9.35;;;5.13;;
79460;SDS011;68929;42.666;23.324;2023-09-08T06:58:47;11.43;;;5.20;;
79460;SDS011;68929;42.666;23.324;2023-09-08T07:01:13;7.40;;;5.03;;
79460;SDS011;68929;42.666;23.324;2023-09-08T07:03:38;5.57;;;4.93;;
79460;SDS011;68929;42.666;23.324;2023-09-08T07:06:04;7.03;;;4.68;;
79460;SDS011;68929;42.666;23.324;2023-09-08T07:08:29;6.03;;;4.35;;
79460;SDS011;68929;42.666;23.324;2023-09-08T07:11:00;7.20;;;4.57;;
79460;SDS011;68929;42.666;23.324;2023-09-08T07:13:29;11.23;;;5.35;;
79460;SDS011;68929;42.666;23.324;2023-09-08T07:15:55;7.72;;;4.93;;
79460;SDS011;68929;42.666;23.324;2023-09-08T07:18:25;17.73;;;5.03;;
79460;SDS011;68929;42.666;23.324;2023-09-08T07:20:50;7.65;;;5.07;;
79460;SDS011;68929;42.666;23.324;2023-09-08T07:23:16;6.45;;;4.43;;
79460;SDS011;68929;42.666;23.324;2023-09-08T07:25:47;9.07;;;4.90;;
79460;SDS011;68929;42.666;23.324;2023-09-08T07:28:13;8.30;;;4.25;;
79460;SDS011;68929;42.666;23.324;2023-09-08T07:30:42;8.55;;;4.85;;
79460;SDS011;68929;42.666;23.324;2023-09-08T07:33:16;5.57;;;4.35;;
79460;SDS011;68929;42.666;23.324;2023-09-08T07:35:42;7.43;;;4.93;;
79460;SDS011;68929;42.666;23.324;2023-09-08T07:38:07;6.63;;;4.60;;
79460;SDS011;68929;42.666;23.324;2023-09-08T07:40:33;7.13;;;4.50;;
79460;SDS011;68929;42.666;23.324;2023-09-08T07:43:08;6.63;;;4.13;;
79460;SDS011;68929;42.666;23.324;2023-09-08T07:45:33;7.22;;;4.38;;
79460;SDS011;68929;42.666;23.324;2023-09-08T07:47:59;8.23;;;5.63;;
79460;SDS011;68929;42.666;23.324;2023-09-08T07:50:25;6.90;;;4.53;;
79460;SDS011;68929;42.666;23.324;2023-09-08T07:52:52;10.18;;;4.78;;
79460;SDS011;68929;42.666;23.324;2023-09-08T07:55:19;6.43;;;4.65;;
79460;SDS011;68929;42.666;23.324;2023-09-08T07:57:48;5.15;;;4.47;;
79460;SDS011;68929;42.666;23.324;2023-09-08T08:00:14;5.60;;;4.60;;
79460;SDS011;68929;42.666;23.324;2023-09-08T08:02:53;10.57;;;5.22;;
79460;SDS011;68929;42.666;23.324;2023-09-08T08:05:20;5.97;;;4.97;;
79460;SDS011;68929;42.666;23.324;2023-09-08T08:07:46;6.32;;;4.63;;
79460;SDS011;68929;42.666;23.324;2023-09-08T08:10:17;7.93;;;5.03;;
79460;SDS011;68929;42.666;23.324;2023-09-08T08:12:46;5.13;;;4.57;;
79460;SDS011;68929;42.666;23.324;2023-09-08T08:15:11;8.15;;;4.65;;
79460;SDS011;68929;42.666;23.324;2023-09-08T08:17:37;7.82;;;4.30;;
79460;SDS011;68929;42.666;23.324;2023-09-08T08:20:04;5.88;;;4.55;;
79460;SDS011;68929;42.666;23.324;2023-09-08T08:22:32;7.15;;;4.50;;
79460;SDS011;68929;42.666;23.324;2023-09-08T08:24:58;5.03;;;3.95;;
79460;SDS011;68929;42.666;23.324;2023-09-08T08:27:24;7.38;;;4.47;;
79460;SDS011;68929;42.666;23.324;2023-09-08T08:29:49;7.93;;;4.28;;
79460;SDS011;68929;42.666;23.324;2023-09-08T08:32:16;7.60;;;3.90;;
79460;SDS011;68929;42.666;23.324;2023-09-08T08:34:42;6.50;;;3.97;;
79460;SDS011;68929;42.666;23.324;2023-09-08T08:37:10;8.45;;;4.00;;
79460;SDS011;68929;42.666;23.324;2023-09-08T08:39:35;6.78;;;3.30;;
79460;SDS011;68929;42.666;23.324;2023-09-08T08:42:07;6.38;;;4.03;;
79460;SDS011;68929;42.666;23.324;2023-09-08T08:44:33;5.78;;;3.95;;
79460;SDS011;68929;42.666;23.324;2023-09-08T08:47:00;3.60;;;3.30;;
79460;SDS011;68929;42.666;23.324;2023-09-08T08:49:27;6.20;;;4.45;;
79460;SDS011;68929;42.666;23.324;2023-09-08T08:51:59;5.75;;;4.10;;
79460;SDS011;68929;42.666;23.324;2023-09-08T08:54:29;6.90;;;4.20;;
79460;SDS011;68929;42.666;23.324;2023-09-08T08:56:55;5.68;;;3.95;;
79460;SDS011;68929;42.666;23.324;2023-09-08T08:59:27;6.50;;;3.63;;
79460;SDS011;68929;42.666;23.324;2023-09-08T09:01:57;4.97;;;3.80;;
79460;SDS011;68929;42.666;23.324;2023-09-08T09:04:24;5.45;;;3.45;;
79460;SDS011;68929;42.666;23.324;2023-09-08T09:06:53;6.40;;;3.65;;
79460;SDS011;68929;42.666;23.324;2023-09-08T09:09:19;4.45;;;3.22;;
79460;SDS011;68929;42.666;23.324;2023-09-08T09:11:45;10.65;;;3.95;;
79460;SDS011;68929;42.666;23.324;2023-09-08T09:14:11;10.57;;;4.53;;
79460;SDS011;68929;42.666;23.324;2023-09-08T09:16:46;6.63;;;4.13;;
79460;SDS011;68929;42.666;23.324;2023-09-08T09:19:20;4.55;;;3.67;;
79460;SDS011;68929;42.666;23.324;2023-09-08T09:21:52;8.90;;;4.13;;
79460;SDS011;68929;42.666;23.324;2023-09-08T09:24:36;6.43;;;4.15;;
79460;SDS011;68929;42.666;23.324;2023-09-08T09:27:09;6.07;;;3.92;;
79460;SDS011;68929;42.666;23.324;2023-09-08T09:30:00;8.23;;;4.18;;
79460;SDS011;68929;42.666;23.324;2023-09-08T09:32:25;8.57;;;4.03;;
79460;SDS011;68929;42.666;23.324;2023-09-08T09:34:53;6.35;;;4.18;;
79460;SDS011;68929;42.666;23.324;2023-09-08T09:37:19;7.30;;;3.70;;
79460;SDS011;68929;42.666;23.324;2023-09-08T09:39:52;7.93;;;4.30;;
79460;SDS011;68929;42.666;23.324;2023-09-08T09:42:22;4.50;;;4.10;;
79460;SDS011;68929;42.666;23.324;2023-09-08T09:44:48;5.72;;;3.53;;
79460;SDS011;68929;42.666;23.324;2023-09-08T09:47:20;5.32;;;4.70;;
79460;SDS011;68929;42.666;23.324;2023-09-08T09:49:46;7.60;;;4.43;;
79460;SDS011;68929;42.666;23.324;2023-09-08T09:52:14;6.15;;;4.38;;
79460;SDS011;68929;42.666;23.324;2023-09-08T09:54:56;6.72;;;4.93;;
79460;SDS011;68929;42.666;23.324;2023-09-08T09:57:23;6.82;;;4.35;;
79460;SDS011;68929;42.666;23.324;2023-09-08T09:59:48;7.65;;;4.53;;
79460;SDS011;68929;42.666;23.324;2023-09-08T10:02:15;6.70;;;3.90;;
79460;SDS011;68929;42.666;23.324;2023-09-08T10:04:49;7.78;;;4.13;;
79460;SDS011;68929;42.666;23.324;2023-09-08T10:07:15;9.63;;;4.03;;
79460;SDS011;68929;42.666;23.324;2023-09-08T10:09:41;5.30;;;4.30;;
79460;SDS011;68929;42.666;23.324;2023-09-08T10:12:09;9.93;;;4.10;;
79460;SDS011;68929;42.666;23.324;2023-09-08T10:14:41;6.80;;;4.32;;
79460;SDS011;68929;42.666;23.324;2023-09-08T10:17:17;6.80;;;4.07;;
79460;SDS011;68929;42.666;23.324;2023-09-08T10:20:01;7.65;;;4.57;;
79460;SDS011;68929;42.666;23.324;2023-09-08T10:22:41;5.60;;;4.28;;
79460;SDS011;68929;42.666;23.324;2023-09-08T10:25:19;8.60;;;4.50;;
79460;SDS011;68929;42.666;23.324;2023-09-08T10:27:47;8.00;;;4.35;;
79460;SDS011;68929;42.666;23.324;2023-09-08T10:30:18;7.05;;;3.95;;
79460;SDS011;68929;42.666;23.324;2023-09-08T10:32:48;6.50;;;4.30;;
79460;SDS011;68929;42.666;23.324;2023-09-08T10:35:15;6.03;;;4.07;;
79460;SDS011;68929;42.666;23.324;2023-09-08T10:37:47;4.57;;;4.18;;
79460;SDS011;68929;42.666;23.324;2023-09-08T10:40:25;5.53;;;4.32;;
79460;SDS011;68929;42.666;23.324;2023-09-08T10:43:11;5.13;;;4.25;;
79460;SDS011;68929;42.666;23.324;2023-09-08T10:45:42;8.15;;;4.45;;
79460;SDS011;68929;42.666;23.324;2023-09-08T10:48:10;9.10;;;4.65;;
79460;SDS011;68929;42.666;23.324;2023-09-08T10:50:41;6.90;;;4.32;;
79460;SDS011;68929;42.666;23.324;2023-09-08T10:53:08;7.82;;;4.15;;
79460;SDS011;68929;42.666;23.324;2023-09-08T10:55:52;6.65;;;3.80;;
79460;SDS011;68929;42.666;23.324;2023-09-08T10:58:33;5.68;;;4.07;;
79460;SDS011;68929;42.666;23.324;2023-09-08T11:01:03;7.25;;;3.80;;
79460;SDS011;68929;42.666;23.324;2023-09-08T11:06:10;4.38;;;3.97;;
79460;SDS011;68929;42.666;23.324;2023-09-08T11:08:45;7.43;;;4.43;;
79460;SDS011;68929;42.666;23.324;2023-09-08T11:11:12;8.48;;;4.20;;
79460;SDS011;68929;42.666;23.324;2023-09-08T11:13:39;6.18;;;3.92;;
79460;SDS011;68929;42.666;23.324;2023-09-08T11:16:10;8.35;;;4.28;;
79460;SDS011;68929;42.666;23.324;2023-09-08T11:18:36;6.22;;;4.43;;
79460;SDS011;68929;42.666;23.324;2023-09-08T11:21:02;6.65;;;4.50;;
79460;SDS011;68929;42.666;23.324;2023-09-08T11:23:32;8.27;;;4.78;;
79460;SDS011;68929;42.666;23.324;2023-09-08T11:25:58;8.30;;;4.80;;
79460;SDS011;68929;42.666;23.324;2023-09-08T11:28:29;6.97;;;4.93;;
79460;SDS011;68929;42.666;23.324;2023-09-08T11:30:59;11.05;;;4.80;;
79460;SDS011;68929;42.666;23.324;2023-09-08T11:33:25;6.68;;;4.15;;
79460;SDS011;68929;42.666;23.324;2023-09-08T11:35:50;6.85;;;4.45;;
79460;SDS011;68929;42.666;23.324;2023-09-08T11:38:26;4.40;;;3.90;;
79460;SDS011;68929;42.666;23.324;2023-09-08T11:41:06;6.18;;;3.67;;
79460;SDS011;68929;42.666;23.324;2023-09-08T11:43:31;8.43;;;4.80;;
79460;SDS011;68929;42.666;23.324;2023-09-08T11:46:01;9.75;;;4.80;;
79460;SDS011;68929;42.666;23.324;2023-09-08T11:48:31;5.65;;;3.78;;
79460;SDS011;68929;42.666;23.324;2023-09-08T11:51:00;8.18;;;4.43;;
79460;SDS011;68929;42.666;23.324;2023-09-08T11:53:26;6.60;;;4.78;;
79460;SDS011;68929;42.666;23.324;2023-09-08T11:55:52;6.88;;;4.35;;
79460;SDS011;68929;42.666;23.324;2023-09-08T11:58:18;10.65;;;5.07;;
79460;SDS011;68929;42.666;23.324;2023-09-08T12:00:48;8.55;;;4.38;;
79460;SDS011;68929;42.666;23.324;2023-09-08T12:03:14;4.77;;;4.00;;
79460;SDS011;68929;42.666;23.324;2023-09-08T12:05:50;7.50;;;4.22;;
79460;SDS011;68929;42.666;23.324;2023-09-08T12:08:16;7.40;;;4.82;;
79460;SDS011;68929;42.666;23.324;2023-09-08T12:10:47;4.50;;;3.65;;
79460;SDS011;68929;42.666;23.324;2023-09-08T12:13:12;4.85;;;3.88;;
79460;SDS011;68929;42.666;23.324;2023-09-08T12:15:43;7.05;;;4.13;;
79460;SDS011;68929;42.666;23.324;2023-09-08T12:18:13;6.35;;;4.32;;
79460;SDS011;68929;42.666;23.324;2023-09-08T12:20:45;6.53;;;4.10;;
79460;SDS011;68929;42.666;23.324;2023-09-08T12:25:50;8.68;;;4.68;;
79460;SDS011;68929;42.666;23.324;2023-09-08T12:28:17;5.20;;;3.80;;
79460;SDS011;68929;42.666;23.324;2023-09-08T12:30:44;8.82;;;4.50;;
79460;SDS011;68929;42.666;23.324;2023-09-08T12:33:10;7.50;;;4.18;;
79460;SDS011;68929;42.666;23.324;2023-09-08T12:35:43;4.13;;;3.65;;
79460;SDS011;68929;42.666;23.324;2023-09-08T12:38:17;6.05;;;3.80;;
79460;SDS011;68929;42.666;23.324;2023-09-08T12:40:43;5.78;;;3.92;;
79460;SDS011;68929;42.666;23.324;2023-09-08T12:43:09;8.35;;;4.35;;
79460;SDS011;68929;42.666;23.324;2023-09-08T12:45:37;8.10;;;3.90;;
79460;SDS011;68929;42.666;23.324;2023-09-08T12:48:09;9.90;;;3.92;;
79460;SDS011;68929;42.666;23.324;2023-09-08T12:50:37;5.30;;;4.28;;
79460;SDS011;68929;42.666;23.324;2023-09-08T12:53:02;5.63;;;3.80;;
79460;SDS011;68929;42.666;23.324;2023-09-08T12:55:29;4.63;;;3.70;;
79460;SDS011;68929;42.666;23.324;2023-09-08T12:58:04;5.55;;;3.88;;
79460;SDS011;68929;42.666;23.324;2023-09-08T13:00:29;5.72;;;3.78;;
79460;SDS011;68929;42.666;23.324;2023-09-08T13:02:55;8.80;;;3.90;;
79460;SDS011;68929;42.666;23.324;2023-09-08T13:05:20;7.88;;;4.15;;
79460;SDS011;68929;42.666;23.324;2023-09-08T13:07:45;3.42;;;3.13;;
79460;SDS011;68929;42.666;23.324;2023-09-08T13:10:11;5.47;;;3.85;;
79460;SDS011;68929;42.666;23.324;2023-09-08T13:12:36;5.85;;;4.20;;
79460;SDS011;68929;42.666;23.324;2023-09-08T13:15:02;5.43;;;4.32;;
79460;SDS011;68929;42.666;23.324;2023-09-08T13:17:27;7.72;;;4.85;;
79460;SDS011;68929;42.666;23.324;2023-09-08T13:19:53;10.02;;;4.43;;
79460;SDS011;68929;42.666;23.324;2023-09-08T13:22:19;5.70;;;4.10;;
79460;SDS011;68929;42.666;23.324;2023-09-08T13:24:45;9.32;;;4.40;;
79460;SDS011;68929;42.666;23.324;2023-09-08T13:27:22;5.40;;;4.88;;
79460;SDS011;68929;42.666;23.324;2023-09-08T13:29:53;5.13;;;4.60;;
79460;SDS011;68929;42.666;23.324;2023-09-08T13:32:19;7.00;;;4.15;;
79460;SDS011;68929;42.666;23.324;2023-09-08T13:34:44;6.80;;;4.38;;
79460;SDS011;68929;42.666;23.324;2023-09-08T13:37:12;5.20;;;4.80;;
79460;SDS011;68929;42.666;23.324;2023-09-08T13:39:38;6.32;;;4.10;;
79460;SDS011;68929;42.666;23.324;2023-09-08T13:42:03;6.10;;;4.13;;
79460;SDS011;68929;42.666;23.324;2023-09-08T13:44:32;4.55;;;4.10;;
79460;SDS011;68929;42.666;23.324;2023-09-08T13:47:01;6.60;;;4.40;;
79460;SDS011;68929;42.666;23.324;2023-09-08T13:49:27;4.68;;;3.70;;
79460;SDS011;68929;42.666;23.324;2023-09-08T13:51:52;6.07;;;4.35;;
79460;SDS011;68929;42.666;23.324;2023-09-08T13:54:19;7.20;;;4.30;;
79460;SDS011;68929;42.666;23.324;2023-09-08T13:56:44;6.53;;;4.40;;
79460;SDS011;68929;42.666;23.324;2023-09-08T13:59:14;7.60;;;3.88;;
79460;SDS011;68929;42.666;23.324;2023-09-08T14:01:39;5.68;;;4.18;;
79460;SDS011;68929;42.666;23.324;2023-09-08T14:04:05;7.13;;;4.20;;
79460;SDS011;68929;42.666;23.324;2023-09-08T14:06:31;5.78;;;4.22;;
79460;SDS011;68929;42.666;23.324;2023-09-08T14:08:57;5.18;;;3.85;;
79460;SDS011;68929;42.666;23.324;2023-09-08T14:11:23;7.90;;;4.50;;
79460;SDS011;68929;42.666;23.324;2023-09-08T14:13:48;9.00;;;4.57;;
79460;SDS011;68929;42.666;23.324;2023-09-08T14:16:14;5.38;;;3.92;;
79460;SDS011;68929;42.666;23.324;2023-09-08T14:18:39;7.50;;;4.70;;
79460;SDS011;68929;42.666;23.324;2023-09-08T14:21:08;4.70;;;4.20;;
79460;SDS011;68929;42.666;23.324;2023-09-08T14:23:33;6.38;;;4.03;;
79460;SDS011;68929;42.666;23.324;2023-09-08T14:25:59;7.10;;;4.78;;
79460;SDS011;68929;42.666;23.324;2023-09-08T14:28:25;8.05;;;4.25;;
79460;SDS011;68929;42.666;23.324;2023-09-08T14:30:51;5.57;;;4.47;;
79460;SDS011;68929;42.666;23.324;2023-09-08T14:33:17;7.03;;;4.38;;
79460;SDS011;68929;42.666;23.324;2023-09-08T14:35:43;6.13;;;4.60;;
79460;SDS011;68929;42.666;23.324;2023-09-08T14:38:09;5.22;;;4.43;;